sensor_id;sensor_type;location;lat;lon;timestamp;temperature;humidity
4820;DHT22;2424;49.696;6.630;2023-04-03T00:04:06;4.80;99.90
4820;DHT22;2424;49.696;6.630;2023-04-03T00:09:28;4.70;99.90
4820;DHT22;2424;49.696;6.630;2023-04-03T00:14:51;4.70;99.90
4820;DHT22;2424;49.696;6.630;2023-04-03T00:20:13;4.70;99.90
4820;DHT22;2424;49.696;6.630;2023-04-03T00:25:35;4.70;99.90
4820;DHT22;2424;49.696;6.630;2023-04-03T00:30:59;4.60;99.90
4820;DHT22;2424;49.696;6.630;2023-04-03T00:36:21;4.60;99.90
4820;DHT22;2424;49.696;6.630;2023-04-03T00:41:42;4.60;99.90
4820;DHT22;2424;49.696;6.630;2023-04-03T00:47:08;4.60;99.90
4820;DHT22;2424;49.696;6.630;2023-04-03T00:52:31;4.50;99.90
4820;DHT22;2424;49.696;6.630;2023-04-03T00:57:54;4.50;99.90
4820;DHT22;2424;49.696;6.630;2023-04-03T01:03:18;4.50;99.90
4820;DHT22;2424;49.696;6.630;2023-04-03T01:08:41;4.50;99.90
4820;DHT22;2424;49.696;6.630;2023-04-03T01:14:03;4.50;99.90
4820;DHT22;2424;49.696;6.630;2023-04-03T01:19:27;4.40;99.90
4820;DHT22;2424;49.696;6.630;2023-04-03T01:24:49;4.30;99.90
4820;DHT22;2424;49.696;6.630;2023-04-03T01:30:14;4.20;99.90
4820;DHT22;2424;49.696;6.630;2023-04-03T01:35:39;4.00;99.90
4820;DHT22;2424;49.696;6.630;2023-04-03T01:41:01;3.80;99.90
4820;DHT22;2424;49.696;6.630;2023-04-03T01:46:23;3.50;99.90
4820;DHT22;2424;49.696;6.630;2023-04-03T01:51:46;3.30;99.90
4820;DHT22;2424;49.696;6.630;2023-04-03T01:57:08;3.10;99.90
4820;DHT22;2424;49.696;6.630;2023-04-03T02:02:30;2.90;99.90
4820;DHT22;2424;49.696;6.630;2023-04-03T02:07:54;2.80;99.90
4820;DHT22;2424;49.696;6.630;2023-04-03T02:13:16;2.60;99.90
4820;DHT22;2424;49.696;6.630;2023-04-03T02:18:39;2.60;99.90
4820;DHT22;2424;49.696;6.630;2023-04-03T02:24:02;2.60;99.90
4820;DHT22;2424;49.696;6.630;2023-04-03T02:29:24;2.60;99.90
4820;DHT22;2424;49.696;6.630;2023-04-03T02:34:46;2.60;99.90
4820;DHT22;2424;49.696;6.630;2023-04-03T02:40:10;2.40;99.90
4820;DHT22;2424;49.696;6.630;2023-04-03T02:45:33;2.50;99.90
4820;DHT22;2424;49.696;6.630;2023-04-03T02:50:55;2.40;99.90
4820;DHT22;2424;49.696;6.630;2023-04-03T02:56:18;2.40;99.90
4820;DHT22;2424;49.696;6.630;2023-04-03T03:01:40;2.30;99.90
4820;DHT22;2424;49.696;6.630;2023-04-03T03:07:03;2.30;99.90
4820;DHT22;2424;49.696;6.630;2023-04-03T03:12:26;2.20;99.90
4820;DHT22;2424;49.696;6.630;2023-04-03T03:17:48;2.20;99.90
4820;DHT22;2424;49.696;6.630;2023-04-03T03:23:10;2.40;99.90
4820;DHT22;2424;49.696;6.630;2023-04-03T03:28:34;2.40;99.90
4820;DHT22;2424;49.696;6.630;2023-04-03T03:33:56;2.40;99.90
4820;DHT22;2424;49.696;6.630;2023-04-03T03:39:18;2.40;99.90
4820;DHT22;2424;49.696;6.630;2023-04-03T03:44:42;2.40;99.90
4820;DHT22;2424;49.696;6.630;2023-04-03T03:50:04;2.20;99.90
4820;DHT22;2424;49.696;6.630;2023-04-03T03:55:27;2.20;99.90
4820;DHT22;2424;49.696;6.630;2023-04-03T04:00:50;2.10;99.90
4820;DHT22;2424;49.696;6.630;2023-04-03T04:06:12;2.10;99.90
4820;DHT22;2424;49.696;6.630;2023-04-03T04:11:34;2.00;99.90
4820;DHT22;2424;49.696;6.630;2023-04-03T04:16:57;2.00;99.90
4820;DHT22;2424;49.696;6.630;2023-04-03T04:22:19;1.90;99.90
4820;DHT22;2424;49.696;6.630;2023-04-03T04:27:41;1.80;99.90
4820;DHT22;2424;49.696;6.630;2023-04-03T04:33:04;1.80;99.90
4820;DHT22;2424;49.696;6.630;2023-04-03T04:38:27;1.70;99.90
4820;DHT22;2424;49.696;6.630;2023-04-03T04:43:49;1.70;99.90
4820;DHT22;2424;49.696;6.630;2023-04-03T04:49:12;1.70;99.90
4820;DHT22;2424;49.696;6.630;2023-04-03T04:54:34;1.70;99.90
4820;DHT22;2424;49.696;6.630;2023-04-03T04:59:56;1.60;99.90
4820;DHT22;2424;49.696;6.630;2023-04-03T05:05:19;1.50;99.90
4820;DHT22;2424;49.696;6.630;2023-04-03T05:10:41;1.50;99.90
4820;DHT22;2424;49.696;6.630;2023-04-03T05:16:04;1.40;99.90
4820;DHT22;2424;49.696;6.630;2023-04-03T05:21:27;1.50;99.90
4820;DHT22;2424;49.696;6.630;2023-04-03T05:26:52;1.50;99.90
4820;DHT22;2424;49.696;6.630;2023-04-03T05:32:14;1.50;99.90
4820;DHT22;2424;49.696;6.630;2023-04-03T05:37:37;1.40;99.90
4820;DHT22;2424;49.696;6.630;2023-04-03T05:42:59;1.40;99.90
4820;DHT22;2424;49.696;6.630;2023-04-03T05:48:21;1.40;99.90
4820;DHT22;2424;49.696;6.630;2023-04-03T05:53:45;1.40;99.90
4820;DHT22;2424;49.696;6.630;2023-04-03T05:59:08;1.40;99.90
4820;DHT22;2424;49.696;6.630;2023-04-03T06:04:30;1.40;99.90
4820;DHT22;2424;49.696;6.630;2023-04-03T06:09:54;1.50;99.90
4820;DHT22;2424;49.696;6.630;2023-04-03T06:15:16;1.50;99.90
4820;DHT22;2424;49.696;6.630;2023-04-03T06:20:38;1.60;99.90
4820;DHT22;2424;49.696;6.630;2023-04-03T06:26:01;1.60;99.90
4820;DHT22;2424;49.696;6.630;2023-04-03T06:31:23;1.70;99.90
4820;DHT22;2424;49.696;6.630;2023-04-03T06:36:45;1.70;99.90
4820;DHT22;2424;49.696;6.630;2023-04-03T06:42:09;1.80;99.90
4820;DHT22;2424;49.696;6.630;2023-04-03T06:47:31;1.80;99.90
4820;DHT22;2424;49.696;6.630;2023-04-03T06:52:53;2.00;99.90
4820;DHT22;2424;49.696;6.630;2023-04-03T06:58:16;2.20;99.90
4820;DHT22;2424;49.696;6.630;2023-04-03T07:03:38;2.40;99.90
4820;DHT22;2424;49.696;6.630;2023-04-03T07:09:00;2.50;99.90
4820;DHT22;2424;49.696;6.630;2023-04-03T07:14:24;2.60;99.90
4820;DHT22;2424;49.696;6.630;2023-04-03T07:19:46;2.80;99.90
4820;DHT22;2424;49.696;6.630;2023-04-03T07:25:08;2.90;99.90
4820;DHT22;2424;49.696;6.630;2023-04-03T07:30:32;3.00;99.90
4820;DHT22;2424;49.696;6.630;2023-04-03T07:35:55;3.20;99.90
4820;DHT22;2424;49.696;6.630;2023-04-03T07:41:19;3.30;99.90
4820;DHT22;2424;49.696;6.630;2023-04-03T07:46:44;3.50;99.90
4820;DHT22;2424;49.696;6.630;2023-04-03T07:52:07;3.60;99.90
4820;DHT22;2424;49.696;6.630;2023-04-03T07:57:30;3.80;99.90
4820;DHT22;2424;49.696;6.630;2023-04-03T08:02:53;3.90;99.90
4820;DHT22;2424;49.696;6.630;2023-04-03T08:08:17;4.10;99.90
4820;DHT22;2424;49.696;6.630;2023-04-03T08:13:39;4.10;99.90
4820;DHT22;2424;49.696;6.630;2023-04-03T08:19:03;4.30;99.90
4820;DHT22;2424;49.696;6.630;2023-04-03T08:24:25;4.40;99.90
4820;DHT22;2424;49.696;6.630;2023-04-03T08:29:47;4.60;99.90
4820;DHT22;2424;49.696;6.630;2023-04-03T08:35:10;4.70;99.90
4820;DHT22;2424;49.696;6.630;2023-04-03T08:40:32;4.80;99.90
4820;DHT22;2424;49.696;6.630;2023-04-03T08:45:55;5.00;99.90
4820;DHT22;2424;49.696;6.630;2023-04-03T08:51:21;5.10;99.90
4820;DHT22;2424;49.696;6.630;2023-04-03T08:56:43;5.20;99.90
4820;DHT22;2424;49.696;6.630;2023-04-03T09:02:24;5.40;99.90
4820;DHT22;2424;49.696;6.630;2023-04-03T09:07:53;5.40;99.90
4820;DHT22;2424;49.696;6.630;2023-04-03T09:13:26;5.50;99.90
4820;DHT22;2424;49.696;6.630;2023-04-03T09:18:52;5.70;99.90
4820;DHT22;2424;49.696;6.630;2023-04-03T09:24:17;5.70;99.90
4820;DHT22;2424;49.696;6.630;2023-04-03T09:29:41;5.60;99.90
4820;DHT22;2424;49.696;6.630;2023-04-03T09:35:17;5.70;99.90
4820;DHT22;2424;49.696;6.630;2023-04-03T09:40:42;5.80;99.90
4820;DHT22;2424;49.696;6.630;2023-04-03T09:46:28;6.00;99.90
4820;DHT22;2424;49.696;6.630;2023-04-03T09:51:50;6.50;99.90
4820;DHT22;2424;49.696;6.630;2023-04-03T09:57:15;6.80;99.90
4820;DHT22;2424;49.696;6.630;2023-04-03T10:02:38;6.90;99.90
4820;DHT22;2424;49.696;6.630;2023-04-03T10:08:11;6.90;99.90
4820;DHT22;2424;49.696;6.630;2023-04-03T10:13:34;7.00;99.90
4820;DHT22;2424;49.696;6.630;2023-04-03T10:19:36;7.30;99.90
4820;DHT22;2424;49.696;6.630;2023-04-03T10:25:04;7.50;99.90
4820;DHT22;2424;49.696;6.630;2023-04-03T10:30:41;7.60;99.90
4820;DHT22;2424;49.696;6.630;2023-04-03T10:36:12;7.90;99.90
4820;DHT22;2424;49.696;6.630;2023-04-03T10:41:47;8.00;99.90
4820;DHT22;2424;49.696;6.630;2023-04-03T10:47:18;8.20;99.90
4820;DHT22;2424;49.696;6.630;2023-04-03T10:52:47;8.10;99.90
4820;DHT22;2424;49.696;6.630;2023-04-03T10:58:15;8.20;99.90
4820;DHT22;2424;49.696;6.630;2023-04-03T11:03:44;8.00;99.90
4820;DHT22;2424;49.696;6.630;2023-04-03T11:09:16;7.90;99.90
4820;DHT22;2424;49.696;6.630;2023-04-03T11:14:40;7.80;99.90
4820;DHT22;2424;49.696;6.630;2023-04-03T11:20:10;8.20;99.90
4820;DHT22;2424;49.696;6.630;2023-04-03T11:25:38;8.20;99.90
4820;DHT22;2424;49.696;6.630;2023-04-03T11:31:12;8.20;99.90
4820;DHT22;2424;49.696;6.630;2023-04-03T11:36:44;8.70;99.90
4820;DHT22;2424;49.696;6.630;2023-04-03T11:42:17;8.30;99.90
4820;DHT22;2424;49.696;6.630;2023-04-03T11:47:47;8.00;99.90
4820;DHT22;2424;49.696;6.630;2023-04-03T11:53:35;8.70;99.90
4820;DHT22;2424;49.696;6.630;2023-04-03T11:59:22;8.80;99.90
4820;DHT22;2424;49.696;6.630;2023-04-03T12:05:26;8.10;99.90
4820;DHT22;2424;49.696;6.630;2023-04-03T12:11:21;8.00;99.90
4820;DHT22;2424;49.696;6.630;2023-04-03T12:16:46;8.20;99.90
4820;DHT22;2424;49.696;6.630;2023-04-03T12:22:17;8.20;99.90
4820;DHT22;2424;49.696;6.630;2023-04-03T12:27:42;8.50;99.90
4820;DHT22;2424;49.696;6.630;2023-04-03T12:33:24;8.80;99.90
4820;DHT22;2424;49.696;6.630;2023-04-03T12:39:07;8.40;99.90
4820;DHT22;2424;49.696;6.630;2023-04-03T12:44:47;8.40;99.90
4820;DHT22;2424;49.696;6.630;2023-04-03T12:50:20;8.80;99.90
4820;DHT22;2424;49.696;6.630;2023-04-03T12:55:45;8.80;99.90
4820;DHT22;2424;49.696;6.630;2023-04-03T13:01:11;8.70;99.90
4820;DHT22;2424;49.696;6.630;2023-04-03T13:06:38;8.40;99.90
4820;DHT22;2424;49.696;6.630;2023-04-03T13:12:03;9.40;99.90
4820;DHT22;2424;49.696;6.630;2023-04-03T13:17:31;9.20;99.90
4820;DHT22;2424;49.696;6.630;2023-04-03T13:22:58;9.50;99.90
4820;DHT22;2424;49.696;6.630;2023-04-03T13:28:24;9.10;99.90
4820;DHT22;2424;49.696;6.630;2023-04-03T13:33:54;9.30;99.90
4820;DHT22;2424;49.696;6.630;2023-04-03T13:39:25;9.70;99.90
4820;DHT22;2424;49.696;6.630;2023-04-03T13:44:48;9.70;99.90
4820;DHT22;2424;49.696;6.630;2023-04-03T13:50:16;9.80;99.90
4820;DHT22;2424;49.696;6.630;2023-04-03T13:55:55;9.50;99.90
4820;DHT22;2424;49.696;6.630;2023-04-03T14:01:20;9.60;99.90
4820;DHT22;2424;49.696;6.630;2023-04-03T14:06:43;10.00;99.90
4820;DHT22;2424;49.696;6.630;2023-04-03T14:12:07;10.30;99.90
4820;DHT22;2424;49.696;6.630;2023-04-03T14:17:31;10.60;99.90
4820;DHT22;2424;49.696;6.630;2023-04-03T14:22:54;10.80;99.90
4820;DHT22;2424;49.696;6.630;2023-04-03T14:28:18;10.60;99.90
4820;DHT22;2424;49.696;6.630;2023-04-03T14:33:42;10.30;99.30
4820;DHT22;2424;49.696;6.630;2023-04-03T14:39:06;10.80;99.90
4820;DHT22;2424;49.696;6.630;2023-04-03T14:44:29;10.80;99.70
4820;DHT22;2424;49.696;6.630;2023-04-03T14:49:53;10.20;99.50
4820;DHT22;2424;49.696;6.630;2023-04-03T14:55:16;10.40;98.80
4820;DHT22;2424;49.696;6.630;2023-04-03T15:00:38;10.70;99.90
4820;DHT22;2424;49.696;6.630;2023-04-03T15:06:01;10.50;99.90
4820;DHT22;2424;49.696;6.630;2023-04-03T15:11:23;10.40;99.90
4820;DHT22;2424;49.696;6.630;2023-04-03T15:16:46;10.10;99.90
4820;DHT22;2424;49.696;6.630;2023-04-03T15:22:13;9.80;99.90
4820;DHT22;2424;49.696;6.630;2023-04-03T15:27:36;9.80;99.90
4820;DHT22;2424;49.696;6.630;2023-04-03T15:32:58;10.40;99.90
4820;DHT22;2424;49.696;6.630;2023-04-03T15:38:21;10.50;98.00
4820;DHT22;2424;49.696;6.630;2023-04-03T15:43:43;10.30;98.60
4820;DHT22;2424;49.696;6.630;2023-04-03T15:49:05;9.90;98.90
4820;DHT22;2424;49.696;6.630;2023-04-03T15:54:29;9.70;99.90
4820;DHT22;2424;49.696;6.630;2023-04-03T15:59:51;10.00;99.10
4820;DHT22;2424;49.696;6.630;2023-04-03T16:05:13;10.00;98.40
4820;DHT22;2424;49.696;6.630;2023-04-03T16:10:38;9.60;99.90
4820;DHT22;2424;49.696;6.630;2023-04-03T16:16:00;9.70;98.60
4820;DHT22;2424;49.696;6.630;2023-04-03T16:21:22;10.00;98.50
4820;DHT22;2424;49.696;6.630;2023-04-03T16:26:46;10.30;98.20
4820;DHT22;2424;49.696;6.630;2023-04-03T16:32:08;9.90;97.60
4820;DHT22;2424;49.696;6.630;2023-04-03T16:37:30;9.60;96.40
4820;DHT22;2424;49.696;6.630;2023-04-03T16:42:54;9.30;98.80
4820;DHT22;2424;49.696;6.630;2023-04-03T16:48:16;9.40;98.60
4820;DHT22;2424;49.696;6.630;2023-04-03T16:53:38;9.50;97.90
4820;DHT22;2424;49.696;6.630;2023-04-03T16:59:01;9.80;98.60
4820;DHT22;2424;49.696;6.630;2023-04-03T17:04:23;9.70;97.70
4820;DHT22;2424;49.696;6.630;2023-04-03T17:09:45;9.60;95.60
4820;DHT22;2424;49.696;6.630;2023-04-03T17:15:09;9.20;96.00
4820;DHT22;2424;49.696;6.630;2023-04-03T17:20:31;9.20;97.50
4820;DHT22;2424;49.696;6.630;2023-04-03T17:25:54;9.00;98.10
4820;DHT22;2424;49.696;6.630;2023-04-03T17:31:17;9.00;97.00
4820;DHT22;2424;49.696;6.630;2023-04-03T17:36:39;8.90;98.40
4820;DHT22;2424;49.696;6.630;2023-04-03T17:42:01;8.70;97.10
4820;DHT22;2424;49.696;6.630;2023-04-03T17:47:26;8.50;96.20
4820;DHT22;2424;49.696;6.630;2023-04-03T17:52:48;8.30;97.50
4820;DHT22;2424;49.696;6.630;2023-04-03T17:58:11;8.10;97.60
4820;DHT22;2424;49.696;6.630;2023-04-03T18:03:34;7.80;95.90
4820;DHT22;2424;49.696;6.630;2023-04-03T18:09:03;7.60;97.30
4820;DHT22;2424;49.696;6.630;2023-04-03T18:14:26;7.50;98.00
4820;DHT22;2424;49.696;6.630;2023-04-03T18:19:49;7.30;97.40
4820;DHT22;2424;49.696;6.630;2023-04-03T18:25:12;7.10;98.90
4820;DHT22;2424;49.696;6.630;2023-04-03T18:30:36;7.00;98.70
4820;DHT22;2424;49.696;6.630;2023-04-03T18:35:59;6.80;99.90
4820;DHT22;2424;49.696;6.630;2023-04-03T18:41:23;6.60;99.90
4820;DHT22;2424;49.696;6.630;2023-04-03T18:46:46;6.40;99.90
4820;DHT22;2424;49.696;6.630;2023-04-03T18:52:10;6.30;99.90
4820;DHT22;2424;49.696;6.630;2023-04-03T18:57:32;6.20;99.90
4820;DHT22;2424;49.696;6.630;2023-04-03T19:02:55;5.90;99.90
4820;DHT22;2424;49.696;6.630;2023-04-03T19:08:18;5.80;99.90
4820;DHT22;2424;49.696;6.630;2023-04-03T19:13:40;5.70;99.90
4820;DHT22;2424;49.696;6.630;2023-04-03T19:19:02;5.50;99.90
4820;DHT22;2424;49.696;6.630;2023-04-03T19:24:26;5.40;99.90
4820;DHT22;2424;49.696;6.630;2023-04-03T19:29:48;5.20;99.90
4820;DHT22;2424;49.696;6.630;2023-04-03T19:35:10;5.00;99.90
4820;DHT22;2424;49.696;6.630;2023-04-03T19:40:34;4.90;99.90
4820;DHT22;2424;49.696;6.630;2023-04-03T19:45:57;4.80;99.90
4820;DHT22;2424;49.696;6.630;2023-04-03T19:51:21;4.70;99.90
4820;DHT22;2424;49.696;6.630;2023-04-03T19:56:45;4.60;99.90
4820;DHT22;2424;49.696;6.630;2023-04-03T20:02:07;4.50;99.90
4820;DHT22;2424;49.696;6.630;2023-04-03T20:07:29;4.40;99.90
4820;DHT22;2424;49.696;6.630;2023-04-03T20:12:52;4.40;99.90
4820;DHT22;2424;49.696;6.630;2023-04-03T20:18:17;4.30;99.90
4820;DHT22;2424;49.696;6.630;2023-04-03T20:23:39;4.20;99.90
4820;DHT22;2424;49.696;6.630;2023-04-03T20:29:03;4.20;99.90
4820;DHT22;2424;49.696;6.630;2023-04-03T20:34:24;4.10;99.90
4820;DHT22;2424;49.696;6.630;2023-04-03T20:39:47;4.00;99.90
4820;DHT22;2424;49.696;6.630;2023-04-03T20:45:10;4.00;99.90
4820;DHT22;2424;49.696;6.630;2023-04-03T20:50:33;3.90;99.90
4820;DHT22;2424;49.696;6.630;2023-04-03T20:55:56;3.90;99.90
4820;DHT22;2424;49.696;6.630;2023-04-03T21:01:21;3.80;99.90
4820;DHT22;2424;49.696;6.630;2023-04-03T21:24:24;3.60;99.90
4820;DHT22;2424;49.696;6.630;2023-04-03T21:29:46;3.50;99.90
4820;DHT22;2424;49.696;6.630;2023-04-03T21:35:10;3.40;99.90
4820;DHT22;2424;49.696;6.630;2023-04-03T21:40:32;3.30;99.90
4820;DHT22;2424;49.696;6.630;2023-04-03T21:45:54;3.30;99.90
4820;DHT22;2424;49.696;6.630;2023-04-03T21:51:17;3.20;99.90
4820;DHT22;2424;49.696;6.630;2023-04-03T21:56:39;3.20;99.90
4820;DHT22;2424;49.696;6.630;2023-04-03T22:02:01;3.20;99.90
4820;DHT22;2424;49.696;6.630;2023-04-03T22:07:25;3.20;99.90
4820;DHT22;2424;49.696;6.630;2023-04-03T22:12:47;3.20;99.90
4820;DHT22;2424;49.696;6.630;2023-04-03T22:18:09;3.10;99.90
4820;DHT22;2424;49.696;6.630;2023-04-03T22:23:33;3.10;99.90
4820;DHT22;2424;49.696;6.630;2023-04-03T22:28:54;3.00;99.90
4820;DHT22;2424;49.696;6.630;2023-04-03T22:34:16;2.90;99.90
4820;DHT22;2424;49.696;6.630;2023-04-03T22:39:40;2.90;99.90
4820;DHT22;2424;49.696;6.630;2023-04-03T22:45:03;2.90;99.90
4820;DHT22;2424;49.696;6.630;2023-04-03T22:50:25;2.80;99.90
4820;DHT22;2424;49.696;6.630;2023-04-03T22:55:54;2.80;99.90
4820;DHT22;2424;49.696;6.630;2023-04-03T23:01:17;2.80;99.90
4820;DHT22;2424;49.696;6.630;2023-04-03T23:06:42;2.70;99.90
4820;DHT22;2424;49.696;6.630;2023-04-03T23:12:05;2.70;99.90
4820;DHT22;2424;49.696;6.630;2023-04-03T23:17:29;2.70;99.90
4820;DHT22;2424;49.696;6.630;2023-04-03T23:22:52;2.60;99.90
4820;DHT22;2424;49.696;6.630;2023-04-03T23:28:15;2.60;99.90
4820;DHT22;2424;49.696;6.630;2023-04-03T23:33:37;2.60;99.90
4820;DHT22;2424;49.696;6.630;2023-04-03T23:39:03;2.60;99.90
4820;DHT22;2424;49.696;6.630;2023-04-03T23:44:26;2.50;99.90
4820;DHT22;2424;49.696;6.630;2023-04-03T23:49:48;2.50;99.90
4820;DHT22;2424;49.696;6.630;2023-04-03T23:55:10;2.40;99.90
